createdAt,value
2019-03-28T00:01:16.013Z,13.70
2019-03-28T00:03:45.592Z,14.65
2019-03-28T00:06:11.954Z,15.60
2019-03-28T00:08:38.336Z,13.98
2019-03-28T00:11:04.854Z,14.75
2019-03-28T00:13:31.364Z,14.87
2019-03-28T00:15:58.247Z,14.28
2019-03-28T00:18:24.657Z,15.20
2019-03-28T00:20:50.918Z,14.10
2019-03-28T00:23:25.084Z,14.50
2019-03-28T00:25:51.875Z,14.65
2019-03-28T00:28:20.144Z,15.45
2019-03-28T00:30:46.426Z,15.35
2019-03-28T00:33:12.729Z,14.05
2019-03-28T00:35:39.261Z,15.23
2019-03-28T00:38:05.704Z,14.63
2019-03-28T00:40:32.047Z,16.02
2019-03-28T00:42:58.355Z,16.55
2019-03-28T00:45:24.690Z,16.12
2019-03-28T00:47:51.104Z,15.45
2019-03-28T00:50:23.809Z,15.98
2019-03-28T00:52:50.410Z,15.30
2019-03-28T00:55:16.707Z,15.72
2019-03-28T00:57:42.978Z,15.18
2019-03-28T01:00:10.486Z,15.00
2019-03-28T01:02:36.767Z,16.07
2019-03-28T01:05:04.679Z,15.10
2019-03-28T01:07:33.073Z,15.72
2019-03-28T01:09:59.552Z,15.23
2019-03-28T01:12:25.911Z,14.87
2019-03-28T01:14:52.208Z,15.05
2019-03-28T01:17:18.509Z,13.60
2019-03-28T01:19:44.862Z,14.58
2019-03-28T01:22:11.204Z,14.03
2019-03-28T01:24:37.733Z,14.35
2019-03-28T01:27:04.275Z,13.83
2019-03-28T01:29:32.222Z,13.72
2019-03-28T01:31:58.750Z,14.33
2019-03-28T01:34:25.107Z,14.30
2019-03-28T01:36:57.561Z,14.30
2019-03-28T01:39:23.872Z,13.48
2019-03-28T01:41:50.341Z,14.50
2019-03-28T01:44:17.290Z,13.20
2019-03-28T01:46:43.921Z,13.95
2019-03-28T01:49:13.182Z,14.10
2019-03-28T01:51:39.501Z,13.48
2019-03-28T01:54:05.825Z,14.23
2019-03-28T01:56:32.220Z,14.15
2019-03-28T01:59:01.528Z,14.45
2019-03-28T02:01:28.825Z,14.15
2019-03-28T02:03:55.203Z,15.58
2019-03-28T02:06:24.773Z,14.58
2019-03-28T02:08:51.098Z,13.98
2019-03-28T02:11:17.442Z,14.58
2019-03-28T02:13:43.767Z,15.53
2019-03-28T02:16:10.086Z,14.53
2019-03-28T02:18:36.406Z,14.78
2019-03-28T02:21:02.819Z,14.45
2019-03-28T02:23:29.196Z,14.35
2019-03-28T02:25:55.601Z,14.55
2019-03-28T02:28:21.898Z,14.38
2019-03-28T02:30:48.495Z,14.78
2019-03-28T02:33:14.753Z,15.05
2019-03-28T02:35:41.047Z,14.60
2019-03-28T02:38:12.577Z,14.13
2019-03-28T02:40:38.981Z,15.18
2019-03-28T02:43:05.358Z,14.28
2019-03-28T02:45:31.626Z,15.55
2019-03-28T02:47:57.925Z,15.32
2019-03-28T02:50:24.268Z,14.20
2019-03-28T02:52:53.598Z,14.98
2019-03-28T02:55:19.999Z,15.28
2019-03-28T02:57:46.301Z,14.20
2019-03-28T03:00:12.634Z,15.18
2019-03-28T03:02:42.081Z,14.93
2019-03-28T03:05:09.567Z,14.87
2019-03-28T03:07:36.023Z,14.47
2019-03-28T03:10:05.434Z,15.20
2019-03-28T03:12:31.730Z,14.58
2019-03-28T03:14:58.034Z,15.50
2019-03-28T03:17:24.403Z,14.75
2019-03-28T03:19:51.416Z,14.38
2019-03-28T03:22:17.973Z,14.87
2019-03-28T03:24:50.435Z,14.58
2019-03-28T03:27:16.811Z,15.03
2019-03-28T03:29:43.217Z,14.73
2019-03-28T03:32:09.695Z,15.58
2019-03-28T03:34:36.119Z,15.13
2019-03-28T03:37:03.997Z,14.45
2019-03-28T03:39:30.637Z,14.33
2019-03-28T03:41:57.264Z,14.93
2019-03-28T03:44:23.593Z,14.68
2019-03-28T03:46:50.148Z,14.80
2019-03-28T03:49:16.729Z,14.93
2019-03-28T03:51:46.356Z,15.05
2019-03-28T03:54:17.448Z,14.90
2019-03-28T03:56:44.033Z,15.98
2019-03-28T03:59:11.605Z,14.25
2019-03-28T04:01:44.521Z,15.35
2019-03-28T04:04:11.186Z,15.20
2019-03-28T04:06:40.656Z,15.28
2019-03-28T04:09:07.107Z,15.50
2019-03-28T04:11:33.399Z,15.88
2019-03-28T04:13:59.789Z,15.78
2019-03-28T04:16:26.132Z,15.48
2019-03-28T04:18:52.417Z,16.17
2019-03-28T04:21:18.904Z,16.77
2019-03-28T04:23:45.238Z,15.53
2019-03-28T04:26:13.587Z,16.32
2019-03-28T04:28:40.019Z,16.10
2019-03-28T04:31:06.532Z,16.17
2019-03-28T04:33:32.878Z,15.75
2019-03-28T04:35:59.306Z,16.62
2019-03-28T04:38:28.861Z,17.10
2019-03-28T04:40:55.290Z,17.00
2019-03-28T04:43:25.532Z,17.02
2019-03-28T04:45:52.301Z,17.50
2019-03-28T04:48:38.116Z,17.42
2019-03-28T04:51:04.409Z,16.55
2019-03-28T04:53:30.963Z,17.17
2019-03-28T04:56:15.521Z,16.67
2019-03-28T04:58:48.102Z,16.90
2019-03-28T05:01:17.493Z,16.87
2019-03-28T05:03:46.868Z,17.95
2019-03-28T05:06:13.137Z,18.35
2019-03-28T05:08:42.572Z,18.42
2019-03-28T05:11:08.990Z,18.55
2019-03-28T05:13:35.307Z,18.05
2019-03-28T05:16:02.041Z,17.82
2019-03-28T05:18:28.400Z,18.73
2019-03-28T05:20:54.765Z,19.02
2019-03-28T05:23:21.072Z,18.05
2019-03-28T05:25:50.627Z,18.67
2019-03-28T05:28:19.371Z,18.00
2019-03-28T05:30:50.870Z,17.57
2019-03-28T05:33:20.841Z,18.20
2019-03-28T05:35:48.687Z,18.60
2019-03-28T05:38:20.446Z,18.35
2019-03-28T05:40:48.336Z,19.17
2019-03-28T05:43:14.659Z,19.67
2019-03-28T05:45:47.656Z,19.35
2019-03-28T05:48:14.110Z,18.67
2019-03-28T05:50:40.632Z,18.60
2019-03-28T05:53:07.462Z,19.03
2019-03-28T05:55:35.811Z,20.10
2019-03-28T05:58:03.667Z,20.05
2019-03-28T06:00:33.428Z,20.90
2019-03-28T06:02:59.717Z,20.70
2019-03-28T06:05:34.520Z,20.65
2019-03-28T06:08:07.109Z,20.10
2019-03-28T06:10:40.506Z,20.23
2019-03-28T06:13:10.276Z,20.65
2019-03-28T06:15:45.675Z,20.80
2019-03-28T06:18:15.049Z,20.72
2019-03-28T06:20:49.724Z,20.30
2019-03-28T06:23:19.419Z,21.20
2019-03-28T06:25:47.819Z,22.35
2019-03-28T06:28:20.107Z,21.93
2019-03-28T06:30:52.418Z,23.00
2019-03-28T06:33:21.888Z,23.77
2019-03-28T06:35:51.293Z,24.27
2019-03-28T06:38:18.756Z,24.02
2019-03-28T06:40:45.172Z,25.02
2019-03-28T06:43:14.704Z,23.98
2019-03-28T06:45:45.207Z,24.52
2019-03-28T06:48:12.542Z,23.85
2019-03-28T06:50:40.069Z,24.50
2019-03-28T06:53:12.645Z,26.50
2019-03-28T06:55:39.097Z,25.52
2019-03-28T06:58:05.514Z,25.95
2019-03-28T07:00:32.002Z,26.77
2019-03-28T07:02:58.590Z,26.20
2019-03-28T07:05:25.133Z,26.27
2019-03-28T07:07:53.055Z,27.62
2019-03-28T07:10:23.348Z,28.02
2019-03-28T07:12:49.913Z,28.45
2019-03-28T07:15:25.126Z,28.52
2019-03-28T07:17:52.045Z,28.05
2019-03-28T07:20:19.654Z,27.42
2019-03-28T07:22:46.244Z,31.00
2019-03-28T07:25:12.873Z,30.95
2019-03-28T07:27:57.481Z,30.55
2019-03-28T07:30:28.011Z,28.27
2019-03-28T07:32:55.986Z,29.30
2019-03-28T07:35:22.698Z,29.60
2019-03-28T07:37:50.040Z,28.92
2019-03-28T07:40:33.511Z,29.65
2019-03-28T07:42:59.391Z,29.75
2019-03-28T07:45:27.524Z,28.92
2019-03-28T07:47:54.305Z,29.70
2019-03-28T07:50:20.754Z,29.52
2019-03-28T07:52:47.180Z,29.70
2019-03-28T07:55:16.530Z,29.55
2019-03-28T07:57:42.138Z,29.23
2019-03-28T08:00:10.398Z,30.23
2019-03-28T08:02:36.975Z,30.32
2019-03-28T08:05:06.214Z,29.77
2019-03-28T08:07:44.261Z,30.68
2019-03-28T08:10:14.107Z,30.85
2019-03-28T08:12:40.557Z,31.10
2019-03-28T08:15:07.110Z,29.85
2019-03-28T08:17:33.405Z,31.05
2019-03-28T08:19:59.712Z,30.30
2019-03-28T08:22:29.382Z,31.57
2019-03-28T08:24:54.271Z,30.62
2019-03-28T08:27:21.320Z,31.70
2019-03-28T08:29:47.761Z,30.85
2019-03-28T08:32:16.022Z,30.92
2019-03-28T08:34:42.491Z,30.52
2019-03-28T08:37:08.802Z,30.25
2019-03-28T08:39:44.347Z,31.57
2019-03-28T08:42:09.289Z,31.23
2019-03-28T08:44:38.853Z,31.73
2019-03-28T08:47:06.483Z,29.30
2019-03-28T08:49:35.814Z,30.45
2019-03-28T08:52:02.128Z,31.25
2019-03-28T08:54:28.461Z,31.25
2019-03-28T08:56:55.175Z,31.27
2019-03-28T08:59:21.627Z,29.37
2019-03-28T09:01:47.935Z,28.55
2019-03-28T09:04:14.263Z,30.15
2019-03-28T09:06:41.212Z,31.10
2019-03-28T09:09:08.068Z,28.87
2019-03-28T09:11:34.413Z,29.63
2019-03-28T09:14:00.740Z,30.00
2019-03-28T09:16:27.041Z,29.07
2019-03-28T09:18:53.308Z,29.60
2019-03-28T09:21:19.640Z,28.92
2019-03-28T09:23:45.949Z,28.25
2019-03-28T09:26:12.349Z,29.50
2019-03-28T09:28:38.768Z,29.18
2019-03-28T09:31:18.907Z,27.42
2019-03-28T09:33:34.375Z,29.57
2019-03-28T09:36:02.917Z,29.85
2019-03-28T09:38:29.701Z,27.70
2019-03-28T09:41:06.705Z,27.60
2019-03-28T09:43:33.333Z,26.05
2019-03-28T09:46:02.375Z,27.65
2019-03-28T09:48:28.764Z,26.90
2019-03-28T09:50:55.053Z,26.23
2019-03-28T09:53:21.422Z,26.27
2019-03-28T09:55:47.915Z,26.48
2019-03-28T09:58:16.606Z,27.30
2019-03-28T10:00:43.244Z,27.93
2019-03-28T10:03:09.761Z,27.70
2019-03-28T10:05:39.093Z,27.17
2019-03-28T10:08:05.458Z,26.25
2019-03-28T10:10:32.171Z,24.00
2019-03-28T10:12:58.716Z,25.10
2019-03-28T10:15:25.256Z,25.43
2019-03-28T10:17:51.780Z,25.43
2019-03-28T10:20:18.902Z,24.87
2019-03-28T10:22:46.093Z,24.90
2019-03-28T10:25:14.459Z,24.07
2019-03-28T10:27:41.275Z,22.82
2019-03-28T10:30:08.176Z,21.60
2019-03-28T10:32:34.668Z,21.80
2019-03-28T10:35:01.134Z,22.60
2019-03-28T10:37:27.581Z,22.42
2019-03-28T10:39:54.084Z,23.45
2019-03-28T10:42:20.689Z,16.27
2019-03-28T10:44:47.358Z,17.82
2019-03-28T10:47:17.097Z,12.82
2019-03-28T10:49:43.496Z,10.95
2019-03-28T10:52:11.905Z,10.32
2019-03-28T10:54:38.171Z,10.40
2019-03-28T10:57:13.643Z,12.10
2019-03-28T10:59:34.042Z,12.13
2019-03-28T11:02:00.514Z,10.93
2019-03-28T11:04:26.812Z,10.38
2019-03-28T11:06:53.242Z,10.10
2019-03-28T11:09:19.704Z,10.63
2019-03-28T11:11:46.009Z,11.57
2019-03-28T11:14:12.429Z,12.40
2019-03-28T11:16:38.860Z,11.88
2019-03-28T11:19:05.177Z,11.50
2019-03-28T11:21:34.217Z,11.08
2019-03-28T11:23:59.904Z,10.80
2019-03-28T11:26:26.288Z,11.30
2019-03-28T11:28:54.871Z,11.12
2019-03-28T11:31:21.410Z,10.68
2019-03-28T11:33:47.806Z,11.05
2019-03-28T11:36:14.460Z,10.85
2019-03-28T11:38:40.818Z,9.98
2019-03-28T11:41:07.384Z,9.73
2019-03-28T11:43:33.908Z,8.38
2019-03-28T11:46:01.225Z,5.97
2019-03-28T11:48:27.695Z,3.80
2019-03-28T11:50:54.304Z,4.62
2019-03-28T11:53:20.632Z,5.05
2019-03-28T11:55:48.871Z,5.80
2019-03-28T11:58:15.121Z,5.05
2019-03-28T12:00:41.674Z,5.95
2019-03-28T12:03:08.142Z,5.70
2019-03-28T12:05:34.596Z,5.70
2019-03-28T12:08:04.058Z,6.42
2019-03-28T12:10:41.258Z,6.20
2019-03-28T12:13:07.995Z,6.10
2019-03-28T12:15:34.429Z,5.67
2019-03-28T12:18:01.004Z,6.20
2019-03-28T12:20:27.586Z,6.35
2019-03-28T12:22:56.126Z,5.80
2019-03-28T12:25:22.654Z,6.05
2019-03-28T12:27:49.241Z,6.30
2019-03-28T12:30:16.175Z,6.80
2019-03-28T12:32:42.841Z,6.37
2019-03-28T12:35:12.434Z,7.03
2019-03-28T12:37:39.069Z,6.78
2019-03-28T12:40:06.314Z,5.92
2019-03-28T12:42:32.772Z,7.22
2019-03-28T12:44:59.563Z,7.40
2019-03-28T12:47:41.277Z,7.20
2019-03-28T12:50:04.549Z,6.80
2019-03-28T12:52:31.124Z,7.00
2019-03-28T12:54:58.599Z,8.18
2019-03-28T12:57:25.080Z,6.97
2019-03-28T12:59:53.549Z,6.80
2019-03-28T13:02:28.583Z,6.75
2019-03-28T13:04:53.987Z,6.80
2019-03-28T13:07:20.365Z,6.67
2019-03-28T13:09:48.772Z,6.58
2019-03-28T13:12:16.612Z,7.15
2019-03-28T13:14:43.219Z,6.65
2019-03-28T13:17:09.527Z,6.45
2019-03-28T13:19:35.980Z,6.22
2019-03-28T13:22:02.507Z,7.08
2019-03-28T13:24:29.456Z,6.67
2019-03-28T13:26:55.964Z,6.08
2019-03-28T13:29:25.186Z,5.90
2019-03-28T13:31:51.481Z,5.75
2019-03-28T13:34:17.997Z,6.20
2019-03-28T13:36:44.526Z,6.03
2019-03-28T13:39:10.854Z,6.00
2019-03-28T13:41:37.147Z,6.30
2019-03-28T13:44:03.754Z,7.87
2019-03-28T13:46:30.247Z,7.08
2019-03-28T13:48:58.126Z,6.72
2019-03-28T13:51:24.611Z,6.80
2019-03-28T13:53:53.834Z,6.65
2019-03-28T13:56:21.016Z,6.65
2019-03-28T13:58:47.428Z,6.95
2019-03-28T14:01:13.861Z,6.92
2019-03-28T14:03:41.599Z,6.95
2019-03-28T14:06:07.933Z,7.10
2019-03-28T14:08:34.296Z,7.58
2019-03-28T14:11:00.628Z,7.53
2019-03-28T14:13:26.961Z,6.97
2019-03-28T14:15:53.249Z,6.60
2019-03-28T14:18:19.734Z,6.90
2019-03-28T14:20:46.114Z,6.15
2019-03-28T14:23:12.489Z,6.85
2019-03-28T14:25:41.958Z,6.12
2019-03-28T14:28:08.287Z,7.20
2019-03-28T14:30:34.572Z,6.60
2019-03-28T14:33:11.332Z,6.78
2019-03-28T14:35:30.043Z,6.78
2019-03-28T14:37:56.342Z,7.00
2019-03-28T14:40:23.728Z,6.53
2019-03-28T14:42:50.212Z,6.53
2019-03-28T14:45:16.541Z,6.72
2019-03-28T14:47:53.382Z,6.80
2019-03-28T14:50:31.529Z,6.45
2019-03-28T14:52:57.770Z,7.10
2019-03-28T14:55:24.157Z,6.67
2019-03-28T14:57:56.775Z,6.08
2019-03-28T15:00:48.680Z,6.65
2019-03-28T15:05:44.927Z,6.90
2019-03-28T15:08:11.370Z,7.17
2019-03-28T15:10:37.760Z,7.15
2019-03-28T15:13:04.079Z,7.47
2019-03-28T15:15:36.198Z,7.00
2019-03-28T15:18:09.697Z,7.35
2019-03-28T15:20:36.106Z,7.60
2019-03-28T15:23:02.410Z,8.23
2019-03-28T15:25:28.817Z,8.78
2019-03-28T15:27:58.068Z,8.55
2019-03-28T15:30:24.579Z,8.78
2019-03-28T15:32:51.157Z,8.95
2019-03-28T15:35:17.428Z,9.23
2019-03-28T15:37:43.851Z,9.03
2019-03-28T15:40:10.113Z,8.70
2019-03-28T15:42:36.385Z,8.68
2019-03-28T15:45:07.147Z,8.78
2019-03-28T15:47:33.722Z,8.80
2019-03-28T15:50:00.168Z,8.63
2019-03-28T15:52:27.620Z,8.68
2019-03-28T15:54:54.229Z,7.72
2019-03-28T15:57:20.562Z,8.23
2019-03-28T15:59:47.017Z,7.70
2019-03-28T16:02:13.399Z,7.15
2019-03-28T16:04:39.729Z,8.28
2019-03-28T16:07:06.206Z,7.95
2019-03-28T16:09:32.602Z,8.25
2019-03-28T16:12:02.772Z,7.75
2019-03-28T16:14:28.283Z,7.87
2019-03-28T16:16:55.206Z,8.48
2019-03-28T16:19:23.818Z,7.37
2019-03-28T16:21:50.232Z,8.75
2019-03-28T16:24:17.223Z,7.97
2019-03-28T16:26:43.769Z,7.67
2019-03-28T16:29:11.156Z,7.95
2019-03-28T16:31:37.614Z,7.85
2019-03-28T16:34:07.625Z,8.20
2019-03-28T16:36:34.040Z,8.33
2019-03-28T16:39:02.113Z,7.72
2019-03-28T16:41:28.384Z,8.70
2019-03-28T16:43:54.689Z,9.28
2019-03-28T16:46:21.144Z,9.63
2019-03-28T16:48:47.519Z,9.18
2019-03-28T16:51:13.857Z,9.68
2019-03-28T16:53:40.204Z,9.33
2019-03-28T16:56:06.569Z,8.58
2019-03-28T16:58:32.947Z,9.15
2019-03-28T17:00:59.208Z,9.15
2019-03-28T17:03:25.481Z,8.55
2019-03-28T17:05:51.768Z,8.93
2019-03-28T17:08:20.080Z,7.95
2019-03-28T17:10:48.315Z,8.63
2019-03-28T17:13:14.615Z,8.55
2019-03-28T17:15:40.926Z,8.60
2019-03-28T17:18:09.158Z,8.50
2019-03-28T17:20:35.461Z,8.28
2019-03-28T17:23:02.661Z,8.55
2019-03-28T17:25:28.975Z,9.28
2019-03-28T17:27:55.236Z,8.83
2019-03-28T17:30:23.516Z,8.08
2019-03-28T17:32:55.415Z,8.85
2019-03-28T17:35:21.708Z,8.90
2019-03-28T17:37:54.279Z,8.80
2019-03-28T17:40:20.847Z,9.18
2019-03-28T17:42:59.117Z,9.60
2019-03-28T17:45:26.529Z,9.83
2019-03-28T17:48:09.712Z,9.78
2019-03-28T17:50:37.155Z,9.50
2019-03-28T17:53:04.809Z,10.53
2019-03-28T17:55:41.591Z,10.05
2019-03-28T17:58:11.198Z,9.80
2019-03-28T18:00:39.396Z,10.45
2019-03-28T18:03:31.606Z,10.10
2019-03-28T18:06:15.133Z,11.12
2019-03-28T18:08:47.186Z,10.50
2019-03-28T18:11:13.545Z,11.03
2019-03-28T18:13:43.376Z,10.65
2019-03-28T18:16:09.652Z,10.50
2019-03-28T18:18:37.953Z,11.35
2019-03-28T18:21:04.261Z,10.35
2019-03-28T18:23:31.607Z,11.25
2019-03-28T18:25:57.987Z,11.90
2019-03-28T18:28:24.249Z,11.45
2019-03-28T18:30:50.527Z,11.68
2019-03-28T18:33:16.954Z,12.37
2019-03-28T18:35:49.252Z,12.43
2019-03-28T18:38:15.541Z,13.40
2019-03-28T18:40:41.955Z,12.40
2019-03-28T18:43:13.056Z,12.90
2019-03-28T18:45:39.332Z,13.20
2019-03-28T18:48:08.842Z,12.95
2019-03-28T18:50:33.804Z,12.88
2019-03-28T18:53:00.085Z,13.48
2019-03-28T18:55:26.415Z,14.70
2019-03-28T18:57:52.747Z,13.58
2019-03-28T19:00:19.347Z,13.28
2019-03-28T19:02:45.737Z,14.45
2019-03-28T19:05:19.710Z,13.85
2019-03-28T19:07:40.260Z,13.93
2019-03-28T19:10:07.867Z,14.80
2019-03-28T19:12:34.148Z,14.90
2019-03-28T19:15:00.700Z,14.65
2019-03-28T19:17:26.975Z,15.18
2019-03-28T19:19:53.360Z,16.10
2019-03-28T19:22:19.736Z,17.20
2019-03-28T19:24:45.996Z,16.00
2019-03-28T19:27:12.513Z,17.55
2019-03-28T19:29:38.767Z,18.05
2019-03-28T19:32:05.069Z,18.75
2019-03-28T19:34:31.429Z,18.37
2019-03-28T19:36:59.415Z,19.02
2019-03-28T19:39:29.186Z,17.25
2019-03-28T19:41:55.932Z,23.45
2019-03-28T19:44:28.408Z,20.00
2019-03-28T19:46:54.659Z,20.53
2019-03-28T19:49:20.978Z,22.20
2019-03-28T19:51:47.848Z,20.37
2019-03-28T19:54:14.202Z,21.60
2019-03-28T19:56:40.504Z,21.13
2019-03-28T19:59:06.945Z,22.47
2019-03-28T20:01:33.235Z,22.33
2019-03-28T20:03:59.607Z,23.20
2019-03-28T20:06:25.866Z,22.47
2019-03-28T20:08:52.140Z,21.90
2019-03-28T20:11:18.562Z,22.47
2019-03-28T20:13:44.781Z,22.27
2019-03-28T20:16:11.119Z,22.03
2019-03-28T20:18:37.640Z,23.23
2019-03-28T20:21:03.916Z,22.73
2019-03-28T20:23:36.208Z,23.57
2019-03-28T20:26:03.436Z,25.00
2019-03-28T20:28:29.723Z,26.83
2019-03-28T20:31:05.214Z,28.23
2019-03-28T20:33:31.509Z,23.33
2019-03-28T20:36:18.624Z,24.60
2019-03-28T20:38:32.050Z,24.23
2019-03-28T20:40:58.608Z,24.63
2019-03-28T20:43:24.970Z,25.10
2019-03-28T20:45:52.231Z,24.80
2019-03-28T20:48:34.289Z,25.87
2019-03-28T20:51:07.219Z,26.97
2019-03-28T20:53:49.272Z,26.23
2019-03-28T20:56:17.832Z,26.87
2019-03-28T20:58:44.960Z,27.67
2019-03-28T21:01:13.330Z,28.70
2019-03-28T21:03:39.635Z,28.23
2019-03-28T21:06:15.296Z,30.17
2019-03-28T21:08:37.263Z,28.90
2019-03-28T21:11:10.642Z,28.83
2019-03-28T21:13:44.215Z,29.13
2019-03-28T21:16:11.729Z,29.43
2019-03-28T21:18:49.594Z,29.40
2019-03-28T21:21:18.001Z,28.63
2019-03-28T21:23:47.425Z,30.63
2019-03-28T21:26:15.014Z,32.53
2019-03-28T21:28:47.240Z,32.37
2019-03-28T21:31:12.659Z,32.43
2019-03-28T21:33:40.645Z,33.17
2019-03-28T21:36:28.651Z,34.60
2019-03-28T21:39:09.031Z,32.53
2019-03-28T21:41:35.746Z,31.57
2019-03-28T21:44:02.014Z,37.10
2019-03-28T21:46:28.370Z,37.53
2019-03-28T21:48:54.667Z,33.93
2019-03-28T21:51:24.272Z,34.50
2019-03-28T21:53:56.397Z,33.63
2019-03-28T21:56:24.129Z,34.37
2019-03-28T21:58:57.088Z,31.17
2019-03-28T22:01:37.805Z,32.47
2019-03-28T22:04:07.405Z,32.57
2019-03-28T22:06:43.229Z,32.63
2019-03-28T22:09:27.524Z,34.23
2019-03-28T22:12:03.182Z,33.20
2019-03-28T22:14:32.822Z,31.23
2019-03-28T22:17:02.269Z,33.00
2019-03-28T22:19:28.629Z,34.80
2019-03-28T22:22:04.581Z,33.83
2019-03-28T22:24:41.115Z,33.27
2019-03-28T22:27:10.673Z,32.27
2019-03-28T22:29:40.283Z,33.17
2019-03-28T22:32:11.701Z,34.53
2019-03-28T22:34:57.243Z,32.80
2019-03-28T22:37:30.788Z,33.20
2019-03-28T22:40:05.677Z,33.23
2019-03-28T22:42:32.185Z,33.97
2019-03-28T22:45:02.303Z,32.90
2019-03-28T22:48:10.837Z,34.97
2019-03-28T22:50:42.019Z,32.17
2019-03-28T22:53:37.543Z,35.57
2019-03-28T22:56:06.975Z,35.00
2019-03-28T22:58:36.459Z,35.77
2019-03-28T23:01:15.003Z,39.07
2019-03-28T23:03:58.527Z,38.07
2019-03-28T23:06:29.875Z,36.33
2019-03-28T23:08:59.372Z,36.68
2019-03-28T23:11:35.870Z,34.90
2019-03-28T23:14:20.421Z,37.37
2019-03-28T23:16:49.871Z,35.97
2019-03-28T23:19:19.388Z,40.03
2019-03-28T23:21:45.843Z,32.50
2019-03-28T23:24:21.291Z,35.27
2019-03-28T23:26:52.641Z,36.07
2019-03-28T23:29:18.940Z,37.78
2019-03-28T23:32:05.249Z,34.30
2019-03-28T23:34:38.179Z,36.13
2019-03-28T23:37:07.724Z,36.50
2019-03-28T23:39:43.899Z,36.50
2019-03-28T23:42:32.179Z,34.77
2019-03-28T23:45:13.923Z,36.17
2019-03-28T23:47:48.602Z,37.60
2019-03-28T23:50:20.868Z,34.00
2019-03-28T23:52:55.643Z,38.60
2019-03-28T23:55:25.117Z,35.73
2019-03-28T23:57:57.523Z,34.33
